UGSB/BUS METAR and TAF weather

Enter ICAO airport designator
Station Type Date Time Source
UGSB METAR 2020/09/19 22:30 UTC NOAA

UGSB 192230Z 13005KT 9999 BKN030 19/18 Q1018 R13/////// NOSIG


Station Type Date Time Source
UGSB Decoded METAR 2020/09/19 22:30 UTC NOAA

Station name not available
Sep 19, 2020 - 06:30 PM EDT / 2020.09.19 2230 UTC
Wind: from the SE (130 degrees) at 6 MPH (5 KT):0
Visibility: greater than 7 mile(s):0
Sky conditions: mostly cloudy
Temperature: 66 F (19 C)
Dew Point: 64 F (18 C)
Relative Humidity: 93%
Pressure (altimeter): 30.06 in. Hg (1018 hPa)
ob: UGSB 192230Z 13005KT 9999 BKN030 19/18 Q1018 R13/////// NOSIG
cycle: 22

Station Type Date Time Source
UGSB TAF 2020/09/19 18:05 UTC NOAA

TAF UGSB 191700Z 1918/2018 13010KT 9999 SCT025 BKN080 TX25/2011Z TN19/2001Z
TEMPO 1918/1922 SHRA SCT015 BKN025CB
BECMG 1921/1923 FEW030 SCT100
BECMG 2005/2007 32007KT
BECMG 2017/2018 13010KT

Example: see airport list